Time;durP1;ratioP1;P1;durP2;ratioP2;P2;SDS_P1;SDS_P2;PMS_P1;PMS_P2;Temp;Humidity;BMP_temperature;BMP_pressure;BME280_temperature;BME280_humidity;BME280_pressure;Samples;Min_cycle;Max_cycle;Signal;HPM_P1;HPM_P2
2023/10/10 00:02:17;;;;;;;6.43;4.15;;;;;;;;;;4915873;29;20444;-75
2023/10/10 00:04:47;;;;;;;9.07;4.43;;;;;;;;;;4926196;29;20447;-75
2023/10/10 00:07:14;;;;;;;7.20;4.22;;;;;;;;;;4926089;29;20441;-75
2023/10/10 00:09:45;;;;;;;8.68;4.05;;;;;;;;;;4918598;29;20533;-74
2023/10/10 00:12:26;;;;;;;8.90;4.10;;;;;;;;;;4924381;29;20440;-75
2023/10/10 00:14:56;;;;;;;11.27;4.60;;;;;;;;;;4920307;29;21191;-74
2023/10/10 00:17:29;;;;;;;9.48;4.35;;;;;;;;;;4921632;29;20456;-74
2023/10/10 00:20:06;;;;;;;8.80;4.70;;;;;;;;;;4927814;29;20517;-74
2023/10/10 00:22:37;;;;;;;8.75;4.38;;;;;;;;;;4921186;29;20432;-75
2023/10/10 00:25:12;;;;;;;7.75;4.88;;;;;;;;;;4923475;29;20721;-75
2023/10/10 00:27:40;;;;;;;8.93;4.20;;;;;;;;;;4926567;29;20897;-75
2023/10/10 00:30:14;;;;;;;6.72;4.03;;;;;;;;;;4903002;29;20443;-74
2023/10/10 00:32:44;;;;;;;8.00;4.03;;;;;;;;;;4918338;29;20527;-74
2023/10/10 00:35:18;;;;;;;6.68;4.28;;;;;;;;;;4922662;29;20449;-74
2023/10/10 00:37:45;;;;;;;35.37;32.97;;;;;;;;;;4928672;29;20443;-74
2023/10/10 00:40:27;;;;;;;7.43;4.72;;;;;;;;;;4916955;29;20447;-74
2023/10/10 00:42:54;;;;;;;78.95;72.55;;;;;;;;;;4924147;29;20443;-74
2023/10/10 00:45:21;;;;;;;13.23;11.95;;;;;;;;;;4918686;29;20520;-74
2023/10/10 00:47:53;;;;;;;6.28;4.90;;;;;;;;;;4911594;29;21166;-74
2023/10/10 00:50:25;;;;;;;6.30;3.83;;;;;;;;;;4923131;29;20490;-74
2023/10/10 00:52:56;;;;;;;9.15;4.25;;;;;;;;;;4920550;29;20493;-74
2023/10/10 00:55:33;;;;;;;7.43;4.20;;;;;;;;;;4910510;29;20467;-76
2023/10/10 00:58:03;;;;;;;5.40;3.85;;;;;;;;;;4925290;29;20530;-74
2023/10/10 01:00:34;;;;;;;8.13;3.75;;;;;;;;;;4923180;29;20536;-74
2023/10/10 01:03:20;;;;;;;5.88;4.18;;;;;;;;;;4924758;29;20883;-74
2023/10/10 01:05:55;;;;;;;7.50;3.37;;;;;;;;;;4922401;29;20783;-74
2023/10/10 01:08:30;;;;;;;6.30;3.60;;;;;;;;;;4928528;29;20472;-74
2023/10/10 01:11:05;;;;;;;6.25;3.60;;;;;;;;;;4918726;29;20533;-74
2023/10/10 01:13:33;;;;;;;7.30;3.53;;;;;;;;;;4921616;29;20941;-74
2023/10/10 01:16:05;;;;;;;5.07;3.50;;;;;;;;;;4927830;29;20447;-74
2023/10/10 01:18:39;;;;;;;7.05;3.97;;;;;;;;;;4921268;29;20436;-74
2023/10/10 01:21:08;;;;;;;7.68;3.92;;;;;;;;;;4918978;29;20544;-73
2023/10/10 01:23:37;;;;;;;6.03;3.80;;;;;;;;;;4918500;29;21022;-73
2023/10/10 01:26:09;;;;;;;6.05;3.47;;;;;;;;;;4910839;29;20449;-74
2023/10/10 01:28:36;;;;;;;7.53;3.83;;;;;;;;;;4922854;29;20902;-73
2023/10/10 01:31:11;;;;;;;7.55;3.83;;;;;;;;;;4920856;29;20508;-73
2023/10/10 01:33:42;;;;;;;12.07;10.38;;;;;;;;;;4923528;29;20447;-73
2023/10/10 01:36:19;;;;;;;7.80;4.13;;;;;;;;;;4924180;29;20518;-73
2023/10/10 01:38:55;;;;;;;6.00;4.28;;;;;;;;;;4921543;29;20447;-73
2023/10/10 01:41:31;;;;;;;11.07;4.03;;;;;;;;;;4916212;29;20442;-73
2023/10/10 01:44:10;;;;;;;5.38;3.72;;;;;;;;;;4920159;29;20606;-73
2023/10/10 01:46:40;;;;;;;6.38;4.03;;;;;;;;;;4914804;29;20464;-73
2023/10/10 01:49:19;;;;;;;10.57;4.10;;;;;;;;;;4925554;29;20534;-73
2023/10/10 01:51:53;;;;;;;8.53;4.10;;;;;;;;;;4918064;29;20439;-73
2023/10/10 01:54:35;;;;;;;7.05;4.05;;;;;;;;;;4916067;29;20446;-72
2023/10/10 01:57:07;;;;;;;6.80;4.10;;;;;;;;;;4923118;29;20978;-73
2023/10/10 01:59:38;;;;;;;9.65;4.07;;;;;;;;;;4922191;29;20791;-73
2023/10/10 02:02:13;;;;;;;5.75;3.97;;;;;;;;;;4918353;29;20502;-73
2023/10/10 02:04:44;;;;;;;8.43;3.92;;;;;;;;;;4912166;29;20450;-73
2023/10/10 02:07:25;;;;;;;7.15;3.95;;;;;;;;;;4920279;29;20901;-73
2023/10/10 02:10:00;;;;;;;7.45;3.88;;;;;;;;;;4920289;29;20818;-73
2023/10/10 02:12:33;;;;;;;6.60;3.65;;;;;;;;;;4922219;29;20452;-72
2023/10/10 02:15:11;;;;;;;7.40;4.20;;;;;;;;;;4922215;29;21265;-73
2023/10/10 02:17:50;;;;;;;7.60;4.00;;;;;;;;;;4913417;29;20439;-73
2023/10/10 02:20:33;;;;;;;7.80;3.50;;;;;;;;;;4917577;29;20482;-73
2023/10/10 02:25:37;;;;;;;7.15;3.75;;;;;;;;;;4922208;29;20451;-73
2023/10/10 02:30:46;;;;;;;5.53;3.30;;;;;;;;;;4924394;29;20521;-73
2023/10/10 02:35:55;;;;;;;5.25;3.55;;;;;;;;;;4926092;29;20439;-72
2023/10/10 02:38:23;;;;;;;8.50;3.70;;;;;;;;;;4923640;29;20435;-73
2023/10/10 02:40:55;;;;;;;6.13;3.60;;;;;;;;;;4916963;29;20453;-73
2023/10/10 02:43:45;;;;;;;7.90;3.50;;;;;;;;;;4930598;29;20952;-73
2023/10/10 02:46:20;;;;;;;11.60;7.07;;;;;;;;;;4903523;29;20437;-73
2023/10/10 02:48:53;;;;;;;9.23;7.22;;;;;;;;;;4927817;29;20526;-73
2023/10/10 02:51:21;;;;;;;6.85;3.40;;;;;;;;;;4927241;29;20480;-73
2023/10/10 02:53:50;;;;;;;9.85;3.60;;;;;;;;;;4923422;29;20451;-72
2023/10/10 02:56:18;;;;;;;10.68;3.90;;;;;;;;;;4926631;29;20432;-72
2023/10/10 02:58:54;;;;;;;4.95;3.33;;;;;;;;;;4920733;29;21182;-72
2023/10/10 03:07:19;;;;;;;7.20;3.83;;;;;;;;;;4852500;29;20452;-73
2023/10/10 03:10:22;;;;;;;6.55;3.55;;;;;;;;;;4851650;29;20458;-72
2023/10/10 03:12:37;;;;;;;5.78;3.63;;;;;;;;;;4852767;29;21019;-72
2023/10/10 03:15:27;;;;;;;5.63;3.85;;;;;;;;;;4852381;29;20906;-73
2023/10/10 03:21:25;;;;;;;11.70;8.20;;;;;;;;;;4851506;29;20561;-73
2023/10/10 03:23:43;;;;;;;6.57;3.20;;;;;;;;;;4844965;29;20450;-72
2023/10/10 03:26:19;;;;;;;6.10;3.55;;;;;;;;;;4851226;29;20494;-72
2023/10/10 03:28:49;;;;;;;4.18;3.25;;;;;;;;;;4852432;29;20460;-72
2023/10/10 03:33:44;;;;;;;6.93;3.53;;;;;;;;;;4852387;29;21013;-72
2023/10/10 03:41:26;;;;;;;5.30;3.30;;;;;;;;;;4919131;29;20539;-72
2023/10/10 05:23:49;;;;;;;8.73;3.73;;;;;;;;;;4923857;29;21875;-71
2023/10/10 05:26:20;;;;;;;7.00;3.60;;;;;;;;;;4917221;29;20447;-71
2023/10/10 05:28:48;;;;;;;6.00;4.00;;;;;;;;;;4925207;29;20455;-71
2023/10/10 05:31:21;;;;;;;7.03;4.18;;;;;;;;;;4916376;29;20489;-71
2023/10/10 05:33:49;;;;;;;10.40;5.57;;;;;;;;;;4921555;29;20776;-71
2023/10/10 05:36:19;;;;;;;7.88;4.10;;;;;;;;;;4915651;29;20450;-70
2023/10/10 05:38:48;;;;;;;6.60;4.10;;;;;;;;;;4928582;29;20431;-71
2023/10/10 05:41:18;;;;;;;12.00;8.05;;;;;;;;;;4919748;29;20498;-71
2023/10/10 05:43:49;;;;;;;21.40;19.70;;;;;;;;;;4922845;29;20459;-70
2023/10/10 05:46:17;;;;;;;20.65;18.88;;;;;;;;;;4929696;29;20451;-71
2023/10/10 05:48:46;;;;;;;20.38;18.58;;;;;;;;;;4915570;29;20523;-70
2023/10/10 05:51:13;;;;;;;7.00;4.22;;;;;;;;;;4922442;29;20458;-70
2023/10/10 05:53:40;;;;;;;10.85;5.13;;;;;;;;;;4925905;29;21007;-70
2023/10/10 05:56:15;;;;;;;12.70;4.57;;;;;;;;;;4930404;29;20451;-71
2023/10/10 05:58:43;;;;;;;12.15;7.55;;;;;;;;;;4924268;29;20444;-70
2023/10/10 06:01:13;;;;;;;8.63;4.40;;;;;;;;;;4905918;29;20447;-71
2023/10/10 06:03:42;;;;;;;10.45;4.97;;;;;;;;;;4904424;29;20445;-71
2023/10/10 06:06:12;;;;;;;10.63;5.18;;;;;;;;;;4926075;29;20577;-71
2023/10/10 06:08:43;;;;;;;18.47;13.27;;;;;;;;;;4920184;29;20518;-71
2023/10/10 06:11:13;;;;;;;23.70;21.20;;;;;;;;;;4929345;29;20481;-71
2023/10/10 06:13:43;;;;;;;11.05;5.05;;;;;;;;;;4919294;29;20506;-71
2023/10/10 06:16:15;;;;;;;11.52;5.10;;;;;;;;;;4924183;29;20534;-71
2023/10/10 06:18:44;;;;;;;10.73;5.07;;;;;;;;;;4931796;29;20525;-71
2023/10/10 06:21:14;;;;;;;11.60;4.72;;;;;;;;;;4923922;29;20451;-71
2023/10/10 06:23:43;;;;;;;10.93;4.82;;;;;;;;;;4930852;29;21005;-72
2023/10/10 06:26:14;;;;;;;12.55;5.28;;;;;;;;;;4927390;29;20479;-71
2023/10/10 06:28:49;;;;;;;9.75;4.53;;;;;;;;;;4927318;29;20455;-72
2023/10/10 06:31:19;;;;;;;8.75;4.63;;;;;;;;;;4925335;29;20994;-72
2023/10/10 06:33:49;;;;;;;6.57;4.30;;;;;;;;;;4930602;29;20447;-72
2023/10/10 06:41:39;;;;;;;12.97;4.27;;;;;;;;;;4924388;29;20435;-71
2023/10/10 06:44:13;;;;;;;7.22;3.95;;;;;;;;;;4927919;29;20450;-73
2023/10/10 06:46:42;;;;;;;9.70;5.00;;;;;;;;;;4905789;29;20436;-70
2023/10/10 06:49:12;;;;;;;6.50;3.70;;;;;;;;;;4903932;29;20445;-72
2023/10/10 06:51:39;;;;;;;110.78;102.53;;;;;;;;;;4923337;29;20453;-71
2023/10/10 06:54:08;;;;;;;10.67;6.27;;;;;;;;;;4928501;29;21017;-71
2023/10/10 06:56:53;;;;;;;5.30;3.47;;;;;;;;;;4925917;29;20440;-72
2023/10/10 06:59:26;;;;;;;19.73;18.23;;;;;;;;;;4920861;29;20473;-72
2023/10/10 07:01:59;;;;;;;7.05;3.80;;;;;;;;;;4923520;29;20910;-72
2023/10/10 07:04:27;;;;;;;10.73;9.73;;;;;;;;;;4922792;29;22325;-71
2023/10/10 07:07:00;;;;;;;7.72;4.97;;;;;;;;;;4904529;29;20859;-73
2023/10/10 07:09:31;;;;;;;72.20;66.90;;;;;;;;;;4920901;29;20988;-72
2023/10/10 07:12:19;;;;;;;6.05;3.60;;;;;;;;;;4924126;29;20970;-72
2023/10/10 07:14:47;;;;;;;11.90;5.22;;;;;;;;;;4917897;29;20964;-69
2023/10/10 07:17:14;;;;;;;10.30;4.07;;;;;;;;;;4921428;29;20440;-72
2023/10/10 07:22:35;;;;;;;7.32;4.60;;;;;;;;;;4921106;29;20451;-72
2023/10/10 07:25:17;;;;;;;929.17;663.07;;;;;;;;;;4919000;29;20611;-73
2023/10/10 07:27:44;;;;;;;797.55;642.35;;;;;;;;;;4924076;29;20925;-72
2023/10/10 07:32:43;;;;;;;529.50;478.80;;;;;;;;;;4928256;29;20890;-72
2023/10/10 07:35:16;;;;;;;601.10;544.25;;;;;;;;;;4921198;29;20462;-72
2023/10/10 07:37:44;;;;;;;767.05;674.13;;;;;;;;;;4920687;29;20452;-74
2023/10/10 07:42:57;;;;;;;918.03;631.00;;;;;;;;;;4921304;29;20522;-71
2023/10/10 07:45:33;;;;;;;855.65;595.58;;;;;;;;;;4926056;29;20542;-71
2023/10/10 07:50:34;;;;;;;905.08;633.17;;;;;;;;;;4923307;29;20456;-71
2023/10/10 07:53:12;;;;;;;911.42;644.28;;;;;;;;;;4912770;29;20503;-70
2023/10/10 07:56:23;;;;;;;933.20;656.90;;;;;;;;;;4925487;29;21084;-71
2023/10/10 07:58:43;;;;;;;935.60;662.30;;;;;;;;;;4910529;29;20520;-71
2023/10/10 08:01:20;;;;;;;945.30;683.60;;;;;;;;;;4922828;29;20435;-71
2023/10/10 08:03:47;;;;;;;937.15;683.47;;;;;;;;;;4920828;29;20576;-71
2023/10/10 08:06:21;;;;;;;798.78;710.58;;;;;;;;;;4922670;29;20443;-72
2023/10/10 08:09:18;;;;;;;946.38;710.70;;;;;;;;;;4913719;29;20449;-71
2023/10/10 08:11:55;;;;;;;951.13;709.60;;;;;;;;;;4917286;29;20438;-72
2023/10/10 08:14:30;;;;;;;956.40;720.83;;;;;;;;;;4925391;29;20526;-71
2023/10/10 08:17:02;;;;;;;962.28;717.80;;;;;;;;;;4925268;29;20964;-71
2023/10/10 08:19:33;;;;;;;971.10;722.60;;;;;;;;;;4919038;29;20438;-71
2023/10/10 08:22:12;;;;;;;979.08;731.40;;;;;;;;;;4924820;29;20913;-71
2023/10/10 08:24:43;;;;;;;985.67;745.40;;;;;;;;;;4922585;29;20443;-71
2023/10/10 08:27:11;;;;;;;1000.03;778.42;;;;;;;;;;4925429;29;20439;-71
2023/10/10 08:29:38;;;;;;;986.97;743.13;;;;;;;;;;4924711;29;21007;-72
2023/10/10 08:32:05;;;;;;;976.33;783.83;;;;;;;;;;4919740;29;20431;-71
2023/10/10 08:34:42;;;;;;;897.92;808.65;;;;;;;;;;4925405;29;20449;-71
2023/10/10 08:37:10;;;;;;;452.63;412.10;;;;;;;;;;4921106;29;20438;-72
2023/10/10 08:39:41;;;;;;;867.05;790.35;;;;;;;;;;4911306;29;21127;-71
2023/10/10 08:42:14;;;;;;;56.78;52.17;;;;;;;;;;4920803;29;20921;-69
2023/10/10 08:44:42;;;;;;;8.00;6.03;;;;;;;;;;4921710;29;20491;-70
2023/10/10 08:47:16;;;;;;;20.00;18.33;;;;;;;;;;4920758;29;20510;-70
2023/10/10 08:49:47;;;;;;;141.25;130.23;;;;;;;;;;4916464;29;20441;-71
2023/10/10 08:52:17;;;;;;;77.95;71.97;;;;;;;;;;4925780;29;20787;-72
2023/10/10 08:54:44;;;;;;;18.02;16.20;;;;;;;;;;4922204;29;20555;-71
2023/10/10 08:57:12;;;;;;;9.93;4.47;;;;;;;;;;4922407;29;20447;-72
2023/10/10 08:59:45;;;;;;;8.15;4.68;;;;;;;;;;4927384;29;20447;-71
2023/10/10 09:02:20;;;;;;;10.63;4.72;;;;;;;;;;4921852;29;21058;-69
2023/10/10 09:04:50;;;;;;;144.98;133.57;;;;;;;;;;4920126;29;20443;-71
2023/10/10 09:07:23;;;;;;;67.22;61.92;;;;;;;;;;4910429;29;20435;-71
2023/10/10 09:10:05;;;;;;;11.57;5.43;;;;;;;;;;4922926;29;20452;-71
2023/10/10 09:12:52;;;;;;;11.37;5.23;;;;;;;;;;4917875;29;20465;-71
2023/10/10 09:15:20;;;;;;;95.97;88.65;;;;;;;;;;4927116;29;20435;-68
2023/10/10 09:17:48;;;;;;;902.27;813.37;;;;;;;;;;4914845;29;20456;-71
2023/10/10 09:20:28;;;;;;;626.88;571.13;;;;;;;;;;4925309;29;20440;-70
2023/10/10 09:23:18;;;;;;;791.95;724.38;;;;;;;;;;4918032;29;20440;-71
2023/10/10 09:25:48;;;;;;;971.88;875.58;;;;;;;;;;4927214;29;20470;-71
2023/10/10 09:28:20;;;;;;;1028.55;849.03;;;;;;;;;;4933395;29;20525;-71
2023/10/10 09:30:59;;;;;;;1014.77;812.33;;;;;;;;;;4930688;29;20440;-71
2023/10/10 09:36:09;;;;;;;962.90;749.33;;;;;;;;;;4933762;29;20442;-69
2023/10/10 09:38:46;;;;;;;693.92;626.13;;;;;;;;;;4916423;29;20902;-70
2023/10/10 09:41:28;;;;;;;951.33;737.92;;;;;;;;;;4927158;29;20487;-70
2023/10/10 09:49:40;;;;;;;903.90;684.70;;;;;;;;;;4926101;29;20535;-70
2023/10/10 09:57:43;;;;;;;985.65;890.45;;;;;;;;;;4926266;29;20537;-70
2023/10/10 10:00:14;;;;;;;1041.15;867.13;;;;;;;;;;4923233;29;20452;-71
2023/10/10 10:02:57;;;;;;;1005.30;817.33;;;;;;;;;;4934178;29;20847;-70
2023/10/10 10:05:28;;;;;;;992.50;794.35;;;;;;;;;;4925250;29;20894;-71
2023/10/10 10:08:07;;;;;;;994.90;805.27;;;;;;;;;;4919060;29;20516;-71
2023/10/10 10:10:48;;;;;;;1003.60;822.83;;;;;;;;;;4922121;29;20470;-71
2023/10/10 10:13:37;;;;;;;994.17;813.88;;;;;;;;;;4915776;29;20446;-71
2023/10/10 10:16:09;;;;;;;1020.60;850.30;;;;;;;;;;4930697;29;20454;-68
2023/10/10 10:18:46;;;;;;;1013.90;862.60;;;;;;;;;;4904981;29;20443;-71
2023/10/10 10:21:27;;;;;;;1035.57;862.40;;;;;;;;;;4911352;29;20522;-70
2023/10/10 10:24:15;;;;;;;1040.32;938.28;;;;;;;;;;4926342;29;20454;-70
2023/10/10 10:26:44;;;;;;;1044.35;882.80;;;;;;;;;;4926437;29;20442;-69
2023/10/10 10:29:15;;;;;;;1041.63;879.63;;;;;;;;;;4934206;29;20461;-71
2023/10/10 10:31:51;;;;;;;1046.63;887.88;;;;;;;;;;4914743;29;20445;-70
2023/10/10 10:34:31;;;;;;;1044.40;888.17;;;;;;;;;;4926506;29;20791;-71
2023/10/10 10:37:19;;;;;;;1038.05;884.40;;;;;;;;;;4918765;29;20449;-71
2023/10/10 10:42:40;;;;;;;974.80;805.53;;;;;;;;;;4915449;29;20440;-71
2023/10/10 10:45:26;;;;;;;969.00;801.17;;;;;;;;;;4920497;29;20444;-69
2023/10/10 10:48:01;;;;;;;976.42;811.08;;;;;;;;;;4917019;29;20835;-71
2023/10/10 10:50:29;;;;;;;1008.92;850.88;;;;;;;;;;4923299;29;20441;-69
2023/10/10 10:53:05;;;;;;;984.13;817.25;;;;;;;;;;4911317;29;20443;-71
2023/10/10 10:55:39;;;;;;;984.28;814.30;;;;;;;;;;4927984;29;20461;-71
2023/10/10 11:03:35;;;;;;;1010.33;832.10;;;;;;;;;;4927126;29;20434;-71
2023/10/10 11:06:07;;;;;;;1034.33;869.57;;;;;;;;;;4920584;29;20633;-70
2023/10/10 11:09:06;;;;;;;1017.55;905.03;;;;;;;;;;4921088;29;20460;-71
2023/10/10 11:14:09;;;;;;;1042.95;900.83;;;;;;;;;;4924561;29;20449;-71
2023/10/10 11:16:46;;;;;;;1053.88;906.75;;;;;;;;;;4916923;29;20823;-70
2023/10/10 11:21:56;;;;;;;1035.63;878.83;;;;;;;;;;4919189;29;20468;-70
2023/10/10 11:24:24;;;;;;;1004.97;843.40;;;;;;;;;;4903295;29;20449;-72
2023/10/10 11:29:34;;;;;;;998.95;820.65;;;;;;;;;;4926481;29;20502;-70
2023/10/10 11:32:08;;;;;;;971.47;797.30;;;;;;;;;;4924373;29;20443;-71
2023/10/10 11:34:45;;;;;;;997.85;829.10;;;;;;;;;;4927660;29;20485;-72
2023/10/10 11:37:17;;;;;;;1001.60;837.88;;;;;;;;;;4901807;29;20503;-71
2023/10/10 11:39:48;;;;;;;1011.28;860.15;;;;;;;;;;4903896;29;20518;-72
2023/10/10 11:42:27;;;;;;;1027.45;887.67;;;;;;;;;;4925659;29;20519;-72
2023/10/10 11:45:00;;;;;;;1056.95;928.72;;;;;;;;;;4922002;29;20447;-72
2023/10/10 11:47:42;;;;;;;1073.78;954.47;;;;;;;;;;4905907;29;20446;-72
2023/10/10 11:50:11;;;;;;;1029.72;880.63;;;;;;;;;;4924580;29;20439;-71
2023/10/10 11:52:56;;;;;;;1036.88;894.92;;;;;;;;;;4928735;29;20439;-71
2023/10/10 11:55:24;;;;;;;1036.13;892.13;;;;;;;;;;4929253;29;20454;-71
2023/10/10 11:57:55;;;;;;;1031.33;881.47;;;;;;;;;;4908596;29;20524;-71
2023/10/10 12:00:44;;;;;;;1044.75;899.20;;;;;;;;;;4914955;29;20436;-71
2023/10/10 12:03:41;;;;;;;1041.27;898.00;;;;;;;;;;4922008;29;20451;-71
2023/10/10 12:06:26;;;;;;;1036.45;887.90;;;;;;;;;;4923943;29;20585;-70
2023/10/10 12:08:54;;;;;;;1032.35;907.10;;;;;;;;;;4925797;29;20449;-70
2023/10/10 12:11:21;;;;;;;1006.10;901.00;;;;;;;;;;4921870;29;20524;-70
2023/10/10 12:13:50;;;;;;;1019.97;901.13;;;;;;;;;;4927135;29;20524;-69
2023/10/10 12:16:23;;;;;;;979.22;891.08;;;;;;;;;;4928585;29;20435;-70
2023/10/10 12:18:55;;;;;;;982.00;886.10;;;;;;;;;;4901813;29;20443;-70
2023/10/10 12:21:23;;;;;;;965.33;879.40;;;;;;;;;;4924877;29;20439;-71
2023/10/10 12:23:55;;;;;;;959.43;870.23;;;;;;;;;;4925746;29;20468;-71
2023/10/10 12:26:29;;;;;;;934.08;851.60;;;;;;;;;;4924977;29;20447;-70
2023/10/10 12:28:57;;;;;;;922.72;844.10;;;;;;;;;;4929381;29;20492;-70
2023/10/10 12:31:24;;;;;;;535.83;485.57;;;;;;;;;;4921503;29;20484;-71
2023/10/10 12:33:54;;;;;;;567.00;515.10;;;;;;;;;;4915049;29;20449;-70
2023/10/10 12:36:25;;;;;;;914.37;839.03;;;;;;;;;;4922583;29;20447;-71
2023/10/10 12:38:52;;;;;;;760.15;695.50;;;;;;;;;;4921834;29;20489;-70
2023/10/10 12:41:20;;;;;;;1067.33;959.03;;;;;;;;;;4918710;29;20462;-71
2023/10/10 12:43:48;;;;;;;851.77;779.20;;;;;;;;;;4916969;29;20447;-70
2023/10/10 12:46:17;;;;;;;911.35;833.47;;;;;;;;;;4920610;29;20489;-71
2023/10/10 12:48:51;;;;;;;740.10;677.40;;;;;;;;;;4926582;29;21032;-70
2023/10/10 12:51:23;;;;;;;794.85;728.55;;;;;;;;;;4896463;29;20491;-70
2023/10/10 12:54:00;;;;;;;1098.15;999.90;;;;;;;;;;4924489;29;20477;-71
2023/10/10 12:56:28;;;;;;;1098.38;999.90;;;;;;;;;;4919453;29;20439;-69
2023/10/10 12:59:03;;;;;;;1077.85;989.47;;;;;;;;;;4924615;29;20551;-71
2023/10/10 13:01:55;;;;;;;898.75;825.30;;;;;;;;;;4927926;29;20431;-71
2023/10/10 13:04:28;;;;;;;774.70;709.53;;;;;;;;;;4927158;29;20513;-71
2023/10/10 13:07:02;;;;;;;628.55;573.55;;;;;;;;;;4920018;29;20449;-72
2023/10/10 13:09:42;;;;;;;991.70;911.20;;;;;;;;;;4915182;29;20479;-72
2023/10/10 13:12:18;;;;;;;1029.93;945.75;;;;;;;;;;4915729;29;20559;-71
2023/10/10 13:14:50;;;;;;;1082.00;986.35;;;;;;;;;;4926619;29;20475;-71
2023/10/10 13:17:30;;;;;;;1081.93;981.40;;;;;;;;;;4927743;29;20799;-70
2023/10/10 13:19:58;;;;;;;1062.80;967.67;;;;;;;;;;4920819;29;20450;-70
2023/10/10 13:22:29;;;;;;;1061.45;950.05;;;;;;;;;;4910083;29;20439;-71
2023/10/10 13:24:58;;;;;;;1044.70;951.90;;;;;;;;;;4915300;29;20455;-71
2023/10/10 13:27:25;;;;;;;1036.97;949.25;;;;;;;;;;4913263;29;20445;-70
2023/10/10 13:29:52;;;;;;;1048.33;946.37;;;;;;;;;;4926051;29;20524;-71
2023/10/10 13:32:24;;;;;;;1046.10;946.38;;;;;;;;;;4925432;29;20454;-71
2023/10/10 13:34:52;;;;;;;1061.72;921.08;;;;;;;;;;4920186;29;20453;-72
2023/10/10 13:37:19;;;;;;;1063.85;931.63;;;;;;;;;;4921662;29;20487;-72
2023/10/10 13:39:48;;;;;;;1045.40;925.40;;;;;;;;;;4927834;29;20470;-69
2023/10/10 13:42:17;;;;;;;1040.93;927.75;;;;;;;;;;4917582;29;20449;-72
2023/10/10 13:44:45;;;;;;;1027.43;930.72;;;;;;;;;;4920702;29;20440;-71
2023/10/10 13:47:13;;;;;;;1040.88;926.47;;;;;;;;;;4925103;29;20822;-71
2023/10/10 13:49:58;;;;;;;1038.35;932.60;;;;;;;;;;4924524;29;20443;-71
2023/10/10 13:52:25;;;;;;;1039.43;926.63;;;;;;;;;;4918017;29;20449;-69
2023/10/10 13:54:52;;;;;;;1046.83;936.60;;;;;;;;;;4924780;29;20547;-69
2023/10/10 13:57:20;;;;;;;1064.80;928.00;;;;;;;;;;4922320;29;20848;-70
2023/10/10 13:59:51;;;;;;;1059.15;913.60;;;;;;;;;;4918670;29;20529;-71
2023/10/10 14:02:20;;;;;;;1042.20;934.35;;;;;;;;;;4913673;29;20574;-71
2023/10/10 14:04:48;;;;;;;762.33;698.03;;;;;;;;;;4920735;29;20468;-71
2023/10/10 14:07:16;;;;;;;928.17;852.40;;;;;;;;;;4918516;29;20449;-71
2023/10/10 14:09:48;;;;;;;732.95;670.75;;;;;;;;;;4928205;29;20835;-71
2023/10/10 14:12:31;;;;;;;853.33;782.88;;;;;;;;;;4926217;29;20483;-71
2023/10/10 14:15:01;;;;;;;700.97;641.70;;;;;;;;;;4917153;29;20451;-71
2023/10/10 14:17:29;;;;;;;954.77;876.70;;;;;;;;;;4922326;29;20490;-72
2023/10/10 14:19:58;;;;;;;1049.93;957.87;;;;;;;;;;4920826;29;20979;-71
2023/10/10 14:22:25;;;;;;;1045.82;953.85;;;;;;;;;;4915183;29;20452;-72
2023/10/10 14:25:01;;;;;;;1052.18;961.03;;;;;;;;;;4920904;29;20444;-71
2023/10/10 14:27:28;;;;;;;965.20;886.47;;;;;;;;;;4925025;29;20458;-72
2023/10/10 14:29:55;;;;;;;1018.38;936.78;;;;;;;;;;4902035;29;20442;-70
2023/10/10 14:32:28;;;;;;;651.97;596.80;;;;;;;;;;4926680;29;20510;-72
2023/10/10 14:35:05;;;;;;;1091.80;993.80;;;;;;;;;;4924996;29;20528;-72
2023/10/10 14:37:33;;;;;;;857.50;786.30;;;;;;;;;;4926643;29;20433;-72
2023/10/10 14:40:22;;;;;;;736.65;674.33;;;;;;;;;;4916269;29;20520;-72
2023/10/10 14:42:54;;;;;;;1051.80;966.25;;;;;;;;;;4921040;29;20432;-71
2023/10/10 14:45:28;;;;;;;143.13;131.30;;;;;;;;;;4930335;29;20451;-69
2023/10/10 14:47:56;;;;;;;1065.20;934.75;;;;;;;;;;4918216;29;20451;-72
2023/10/10 14:50:24;;;;;;;1063.53;946.97;;;;;;;;;;4918961;29;20444;-71
2023/10/10 14:52:51;;;;;;;1062.73;946.73;;;;;;;;;;4913910;29;20636;-72
2023/10/10 14:55:25;;;;;;;989.13;903.80;;;;;;;;;;4913097;29;21027;-72
2023/10/10 14:57:55;;;;;;;1072.03;965.33;;;;;;;;;;4924493;29;20503;-69
2023/10/10 15:00:24;;;;;;;519.00;475.60;;;;;;;;;;4922698;29;20842;-71
2023/10/10 15:02:55;;;;;;;159.57;147.43;;;;;;;;;;4907290;29;20549;-71
2023/10/10 15:05:23;;;;;;;10.07;3.92;;;;;;;;;;4925223;29;20443;-72
2023/10/10 15:07:52;;;;;;;9.02;3.63;;;;;;;;;;4905422;29;20504;-72
2023/10/10 15:10:23;;;;;;;14.55;13.18;;;;;;;;;;4927211;29;20819;-72
2023/10/10 15:12:50;;;;;;;310.52;284.38;;;;;;;;;;4929953;29;20439;-71
2023/10/10 15:15:22;;;;;;;597.72;546.63;;;;;;;;;;4920040;29;20446;-71
2023/10/10 15:17:50;;;;;;;945.20;867.92;;;;;;;;;;4925746;29;20466;-71
2023/10/10 15:20:17;;;;;;;258.83;239.43;;;;;;;;;;4925085;29;20435;-72
2023/10/10 15:22:45;;;;;;;472.70;430.77;;;;;;;;;;4919369;29;20467;-73
2023/10/10 15:25:15;;;;;;;999.55;917.80;;;;;;;;;;4916559;29;20455;-72
2023/10/10 15:27:49;;;;;;;934.08;857.75;;;;;;;;;;4902666;29;20449;-72
2023/10/10 15:30:16;;;;;;;1006.50;924.00;;;;;;;;;;4920898;29;20796;-71
2023/10/10 15:32:46;;;;;;;721.03;659.53;;;;;;;;;;4924477;29;20975;-71
2023/10/10 15:35:16;;;;;;;1037.35;876.80;;;;;;;;;;4921100;29;21182;-70
2023/10/10 15:37:47;;;;;;;1043.80;866.72;;;;;;;;;;4926551;29;20439;-70
2023/10/10 15:40:21;;;;;;;991.05;880.25;;;;;;;;;;4915175;29;20501;-71
2023/10/10 15:42:50;;;;;;;1039.35;855.28;;;;;;;;;;4920431;29;20441;-70
2023/10/10 15:45:37;;;;;;;1045.25;875.45;;;;;;;;;;4924417;29;20445;-72
2023/10/10 15:48:23;;;;;;;1033.90;849.72;;;;;;;;;;4931753;29;20439;-72
2023/10/10 15:50:51;;;;;;;1031.53;837.35;;;;;;;;;;4928049;29;20498;-72
2023/10/10 15:53:25;;;;;;;1029.32;844.90;;;;;;;;;;4919037;29;20515;-72
2023/10/10 15:56:11;;;;;;;993.50;838.45;;;;;;;;;;4928199;29;20491;-72
2023/10/10 15:58:39;;;;;;;932.80;831.03;;;;;;;;;;4919321;29;20525;-72
2023/10/10 16:01:10;;;;;;;1008.45;813.60;;;;;;;;;;4917681;29;20939;-72
2023/10/10 16:03:38;;;;;;;949.33;809.42;;;;;;;;;;4921574;29;20436;-71
2023/10/10 16:06:08;;;;;;;898.38;808.65;;;;;;;;;;4924735;29;20443;-71
2023/10/10 16:08:36;;;;;;;880.92;791.63;;;;;;;;;;4917841;29;20441;-71
2023/10/10 16:11:09;;;;;;;906.40;783.28;;;;;;;;;;4925188;29;20446;-71
2023/10/10 16:13:36;;;;;;;994.58;756.17;;;;;;;;;;4926747;29;20759;-71
2023/10/10 16:16:06;;;;;;;993.10;746.43;;;;;;;;;;4915363;29;21159;-71
2023/10/10 16:18:36;;;;;;;990.88;738.00;;;;;;;;;;4922425;29;20440;-71
2023/10/10 16:21:04;;;;;;;992.78;740.50;;;;;;;;;;4926872;29;20530;-71
2023/10/10 16:23:32;;;;;;;996.72;744.95;;;;;;;;;;4925171;29;20538;-71
2023/10/10 16:25:59;;;;;;;986.47;728.00;;;;;;;;;;4925350;29;20449;-71
2023/10/10 16:28:27;;;;;;;989.58;726.92;;;;;;;;;;4924908;29;21262;-72
2023/10/10 16:30:54;;;;;;;982.95;718.97;;;;;;;;;;4921796;29;20440;-72
2023/10/10 16:33:23;;;;;;;984.75;718.80;;;;;;;;;;4925992;29;21074;-71
2023/10/10 16:35:56;;;;;;;984.30;720.95;;;;;;;;;;4919577;29;20452;-70
2023/10/10 16:38:23;;;;;;;974.55;695.33;;;;;;;;;;4903410;29;20985;-72
2023/10/10 16:40:50;;;;;;;972.17;693.58;;;;;;;;;;4923543;29;20444;-72
2023/10/10 16:43:18;;;;;;;929.40;696.05;;;;;;;;;;4916311;29;20490;-71
2023/10/10 16:45:49;;;;;;;804.28;660.45;;;;;;;;;;4921075;29;20467;-71
2023/10/10 16:48:16;;;;;;;817.25;678.33;;;;;;;;;;4916987;29;20451;-72
2023/10/10 16:50:51;;;;;;;669.20;609.60;;;;;;;;;;4919210;29;20453;-72
2023/10/10 16:53:18;;;;;;;787.45;682.42;;;;;;;;;;4917760;29;20459;-72
2023/10/10 16:55:45;;;;;;;752.92;678.42;;;;;;;;;;4911945;29;20504;-72
2023/10/10 16:58:15;;;;;;;834.03;645.90;;;;;;;;;;4921530;29;20471;-72
2023/10/10 17:00:47;;;;;;;759.13;681.60;;;;;;;;;;4927547;29;20462;-71
2023/10/10 17:03:15;;;;;;;763.42;688.10;;;;;;;;;;4922442;29;20453;-72
2023/10/10 17:05:42;;;;;;;782.28;696.70;;;;;;;;;;4917132;29;20478;-71
2023/10/10 17:08:11;;;;;;;790.08;682.55;;;;;;;;;;4920538;29;20454;-72
2023/10/10 17:10:38;;;;;;;821.30;686.00;;;;;;;;;;4927830;29;20533;-71
2023/10/10 17:13:08;;;;;;;855.97;689.97;;;;;;;;;;4900985;29;20444;-71
2023/10/10 17:15:38;;;;;;;794.80;683.80;;;;;;;;;;4915104;29;20552;-71
2023/10/10 17:18:08;;;;;;;882.95;684.22;;;;;;;;;;4925062;29;20440;-72
2023/10/10 17:20:37;;;;;;;840.08;687.42;;;;;;;;;;4922694;29;20451;-72
2023/10/10 17:23:05;;;;;;;884.15;682.63;;;;;;;;;;4921191;29;20525;-71
2023/10/10 17:25:37;;;;;;;845.75;680.03;;;;;;;;;;4915537;29;20441;-72
2023/10/10 17:28:05;;;;;;;922.37;677.73;;;;;;;;;;4909231;29;20534;-72